Time;durP1;ratioP1;P1;durP2;ratioP2;P2;SDS_P1;SDS_P2;PMS_P1;PMS_P2;Temp;Humidity;BMP_temperature;BMP_pressure;BME280_temperature;BME280_humidity;BME280_pressure;Samples;Min_cycle;Max_cycle;Signal;HPM_P1;HPM_P2
2022/01/06 00:00:43;;;;;;;;;;;22.40;51.30;;;;;;5100365;28;1902;-38
2022/01/06 00:03:10;;;;;;;;;;;22.40;51.30;;;;;;5100268;28;1202;-39
2022/01/06 00:05:37;;;;;;;;;;;22.40;51.30;;;;;;5100312;28;1800;-38
2022/01/06 00:08:04;;;;;;;;;;;22.40;51.20;;;;;;5100209;28;1011;-39
2022/01/06 00:10:31;;;;;;;;;;;22.40;51.10;;;;;;5099745;28;1000;-39
2022/01/06 00:13:12;;;;;;;;;;;22.50;51.10;;;;;;5100145;28;1875;-39
2022/01/06 00:15:54;;;;;;;;;;;22.50;51.10;;;;;;5100626;28;981;-38
2022/01/06 00:18:31;;;;;;;;;;;22.50;51.20;;;;;;5100163;28;980;-40
2022/01/06 00:23:43;;;;;;;;;;;22.40;51.10;;;;;;5099616;28;665;-38
2022/01/06 00:26:10;;;;;;;;;;;22.40;51.10;;;;;;5100317;28;1006;-39
2022/01/06 00:28:37;;;;;;;;;;;22.40;51.10;;;;;;5099738;28;1056;-39
2022/01/06 00:31:04;;;;;;;;;;;22.40;51.10;;;;;;5100547;28;1011;-39
2022/01/06 00:33:33;;;;;;;;;;;22.40;51.10;;;;;;5099147;28;927;-39
2022/01/06 00:36:00;;;;;;;;;;;22.40;51.20;;;;;;5099117;28;1031;-38
2022/01/06 00:38:27;;;;;;;;;;;22.30;51.20;;;;;;5100110;28;1106;-39
2022/01/06 00:40:54;;;;;;;;;;;22.30;51.30;;;;;;5099721;28;1893;-38
2022/01/06 00:43:21;;;;;;;;;;;22.30;51.40;;;;;;5100035;28;988;-41
2022/01/06 00:45:48;;;;;;;;;;;22.30;51.20;;;;;;5098972;28;1042;-39
2022/01/06 00:48:15;;;;;;;;;;;22.30;51.20;;;;;;5099352;28;936;-38
2022/01/06 00:50:44;;;;;;;;;;;22.30;51.20;;;;;;5099629;28;1027;-38
2022/01/06 00:53:11;;;;;;;;;;;22.40;51.20;;;;;;5099623;28;976;-38
2022/01/06 00:55:38;;;;;;;;;;;22.50;51.10;;;;;;5099573;28;982;-38
2022/01/06 00:58:05;;;;;;;;;;;22.40;51.00;;;;;;5099271;28;984;-39
2022/01/06 01:00:38;;;;;;;;;;;22.50;50.90;;;;;;5099024;28;1898;-39
2022/01/06 01:03:06;;;;;;;;;;;22.50;50.80;;;;;;5099397;28;955;-40
2022/01/06 01:05:33;;;;;;;;;;;22.50;50.70;;;;;;5098915;28;992;-38
2022/01/06 01:08:01;;;;;;;;;;;22.50;50.80;;;;;;5098883;28;996;-39
2022/01/06 01:10:28;;;;;;;;;;;22.50;50.80;;;;;;5099598;28;976;-38
2022/01/06 01:12:54;;;;;;;;;;;22.50;50.90;;;;;;5099682;28;945;-39
2022/01/06 01:15:22;;;;;;;;;;;22.50;50.90;;;;;;5099078;28;1032;-38
2022/01/06 01:17:50;;;;;;;;;;;22.50;50.70;;;;;;5099574;28;980;-39
2022/01/06 01:20:17;;;;;;;;;;;22.50;50.80;;;;;;5099550;28;1898;-39
2022/01/06 01:22:44;;;;;;;;;;;22.50;50.90;;;;;;5098566;28;1110;-39
2022/01/06 01:25:13;;;;;;;;;;;22.50;50.90;;;;;;5099496;28;1905;-39
2022/01/06 01:27:42;;;;;;;;;;;22.40;50.90;;;;;;5099159;28;995;-38
2022/01/06 01:30:12;;;;;;;;;;;22.40;51.10;;;;;;5098722;28;936;-39
2022/01/06 01:32:40;;;;;;;;;;;22.30;51.20;;;;;;5098642;28;1082;-38
2022/01/06 01:35:08;;;;;;;;;;;22.30;51.30;;;;;;5099224;28;945;-39
2022/01/06 01:37:36;;;;;;;;;;;22.30;51.40;;;;;;5098571;28;1053;-39
2022/01/06 01:40:03;;;;;;;;;;;22.20;51.40;;;;;;5098972;28;1982;-39
2022/01/06 01:42:31;;;;;;;;;;;22.20;51.50;;;;;;5098304;28;1009;-39
2022/01/06 01:45:01;;;;;;;;;;;22.20;51.50;;;;;;5098245;28;936;-40
2022/01/06 01:47:31;;;;;;;;;;;22.20;51.50;;;;;;5098400;28;1043;-38
2022/01/06 01:50:10;;;;;;;;;;;22.20;51.50;;;;;;5098388;28;948;-39
2022/01/06 01:52:37;;;;;;;;;;;22.20;51.50;;;;;;5098658;28;1100;-39
2022/01/06 01:55:04;;;;;;;;;;;22.10;51.50;;;;;;5098586;28;935;-39
2022/01/06 01:57:32;;;;;;;;;;;22.10;51.60;;;;;;5098793;28;992;-39
2022/01/06 01:59:59;;;;;;;;;;;22.10;51.60;;;;;;5098372;28;936;-39
2022/01/06 02:02:27;;;;;;;;;;;22.10;51.50;;;;;;5099545;28;1910;-39
2022/01/06 02:04:55;;;;;;;;;;;22.10;51.50;;;;;;5098124;28;1043;-35
2022/01/06 02:07:21;;;;;;;;;;;22.10;51.60;;;;;;5098422;28;1008;-35
2022/01/06 02:09:48;;;;;;;;;;;22.10;51.60;;;;;;5098556;28;1039;-36
2022/01/06 02:12:25;;;;;;;;;;;22.10;51.60;;;;;;5097708;28;956;-35
2022/01/06 02:14:53;;;;;;;;;;;22.10;51.60;;;;;;5097601;28;995;-34
2022/01/06 02:17:19;;;;;;;;;;;22.10;51.50;;;;;;5097715;28;997;-35
2022/01/06 02:19:52;;;;;;;;;;;22.10;51.60;;;;;;5097848;28;945;-34
2022/01/06 02:22:19;;;;;;;;;;;22.00;51.50;;;;;;5098003;28;1905;-35
2022/01/06 02:24:45;;;;;;;;;;;22.10;52.70;;;;;;5098290;28;1050;-35
2022/01/06 02:27:12;;;;;;;;;;;22.10;51.40;;;;;;5097915;28;1042;-36
2022/01/06 02:29:39;;;;;;;;;;;22.10;51.40;;;;;;5098092;28;956;-35
2022/01/06 02:32:10;;;;;;;;;;;22.30;51.20;;;;;;5098012;28;2003;-35
2022/01/06 02:34:37;;;;;;;;;;;22.30;51.10;;;;;;5097937;28;1364;-35
2022/01/06 02:37:05;;;;;;;;;;;22.20;51.10;;;;;;5098480;28;1196;-35
2022/01/06 02:39:32;;;;;;;;;;;22.20;51.20;;;;;;5097737;28;991;-35
2022/01/06 02:41:59;;;;;;;;;;;22.20;51.20;;;;;;5097596;28;1991;-35
2022/01/06 02:44:26;;;;;;;;;;;22.30;51.30;;;;;;5097242;28;980;-35
2022/01/06 02:46:53;;;;;;;;;;;22.30;51.20;;;;;;5097168;28;980;-35
2022/01/06 02:49:20;;;;;;;;;;;22.30;51.10;;;;;;5097572;28;972;-35
2022/01/06 02:51:47;;;;;;;;;;;22.30;51.10;;;;;;5098284;28;1023;-36
2022/01/06 02:54:15;;;;;;;;;;;22.30;51.20;;;;;;5097977;28;988;-35
2022/01/06 02:56:43;;;;;;;;;;;22.40;51.10;;;;;;5097526;28;1004;-34
2022/01/06 02:59:10;;;;;;;;;;;22.40;50.90;;;;;;5097865;28;999;-35
2022/01/06 03:01:39;;;;;;;;;;;22.40;51.00;;;;;;5097609;28;1961;-35
2022/01/06 03:04:06;;;;;;;;;;;22.30;51.00;;;;;;5097599;28;937;-34
2022/01/06 03:06:33;;;;;;;;;;;22.30;51.10;;;;;;5097131;28;976;-36
2022/01/06 03:09:00;;;;;;;;;;;22.30;51.20;;;;;;5097539;28;991;-34
2022/01/06 03:11:28;;;;;;;;;;;22.30;51.20;;;;;;5097606;28;1015;-35
2022/01/06 03:13:54;;;;;;;;;;;22.20;51.20;;;;;;5097275;28;943;-35
2022/01/06 03:16:21;;;;;;;;;;;22.20;51.30;;;;;;5097838;28;1011;-35
2022/01/06 03:18:49;;;;;;;;;;;22.20;51.40;;;;;;5097387;28;999;-34
2022/01/06 03:21:15;;;;;;;;;;;22.20;51.40;;;;;;5097701;28;1909;-36
2022/01/06 03:23:42;;;;;;;;;;;22.20;51.40;;;;;;5097895;28;908;-36
2022/01/06 03:26:08;;;;;;;;;;;22.20;51.40;;;;;;5097364;28;937;-35
2022/01/06 03:28:37;;;;;;;;;;;22.10;51.30;;;;;;5097232;28;964;-35
2022/01/06 03:31:03;;;;;;;;;;;22.10;51.40;;;;;;5097166;28;1034;-35
2022/01/06 03:33:30;;;;;;;;;;;22.20;51.40;;;;;;5097837;28;1010;-40
2022/01/06 03:35:57;;;;;;;;;;;22.10;51.40;;;;;;5098127;28;968;-41
2022/01/06 03:38:24;;;;;;;;;;;22.10;51.40;;;;;;5097446;28;1024;-40
2022/01/06 03:40:50;;;;;;;;;;;22.10;51.40;;;;;;5097393;28;1906;-39
2022/01/06 03:43:17;;;;;;;;;;;22.10;51.40;;;;;;5097522;28;936;-39
2022/01/06 03:45:45;;;;;;;;;;;22.10;51.40;;;;;;5099735;28;971;-39
2022/01/06 03:48:12;;;;;;;;;;;22.10;51.40;;;;;;5101046;28;1004;-39
2022/01/06 03:50:39;;;;;;;;;;;22.10;51.40;;;;;;5100744;28;1015;-39
2022/01/06 03:53:05;;;;;;;;;;;22.10;51.40;;;;;;5100520;28;1007;-39
2022/01/06 03:55:32;;;;;;;;;;;22.10;51.40;;;;;;5100449;28;973;-39
2022/01/06 03:57:59;;;;;;;;;;;22.00;51.40;;;;;;5100685;28;1058;-39
2022/01/06 04:00:26;;;;;;;;;;;22.00;51.40;;;;;;5100979;28;1019;-39
2022/01/06 04:02:54;;;;;;;;;;;22.00;51.40;;;;;;5100582;28;1902;-39
2022/01/06 04:05:20;;;;;;;;;;;22.20;51.40;;;;;;5100238;28;920;-39
2022/01/06 04:07:47;;;;;;;;;;;22.20;51.30;;;;;;5100998;28;984;-40
2022/01/06 04:10:14;;;;;;;;;;;22.20;51.00;;;;;;5100191;28;948;-39
2022/01/06 04:12:41;;;;;;;;;;;22.20;51.00;;;;;;5100400;28;977;-43
2022/01/06 04:15:11;;;;;;;;;;;22.20;51.20;;;;;;5099986;28;921;-39
2022/01/06 04:17:38;;;;;;;;;;;22.20;51.30;;;;;;5100445;28;1117;-39
2022/01/06 04:20:07;;;;;;;;;;;22.10;51.30;;;;;;5100564;28;1034;-39
2022/01/06 04:22:34;;;;;;;;;;;22.10;51.30;;;;;;5099378;28;1986;-42
2022/01/06 04:25:00;;;;;;;;;;;22.10;51.30;;;;;;5099935;28;1008;-41
2022/01/06 04:27:27;;;;;;;;;;;22.10;51.30;;;;;;5100296;28;939;-39
2022/01/06 04:29:54;;;;;;;;;;;22.10;51.30;;;;;;5100490;28;1006;-39
2022/01/06 04:32:20;;;;;;;;;;;22.10;51.40;;;;;;5100272;28;1003;-40
2022/01/06 04:34:47;;;;;;;;;;;22.10;51.30;;;;;;5100369;28;907;-39
2022/01/06 04:37:15;;;;;;;;;;;22.10;51.30;;;;;;5099800;28;1098;-40
2022/01/06 04:39:42;;;;;;;;;;;22.10;51.40;;;;;;5099612;28;1004;-39
2022/01/06 04:42:09;;;;;;;;;;;22.10;51.40;;;;;;5099347;28;1906;-39
2022/01/06 04:44:36;;;;;;;;;;;22.10;51.40;;;;;;5099590;28;1742;-42
2022/01/06 04:47:03;;;;;;;;;;;22.10;51.30;;;;;;5099714;28;1004;-39
2022/01/06 04:49:29;;;;;;;;;;;22.00;51.40;;;;;;5099782;28;1037;-39
2022/01/06 04:51:56;;;;;;;;;;;22.10;51.40;;;;;;5099307;28;955;-39
2022/01/06 04:54:24;;;;;;;;;;;22.10;51.40;;;;;;5099356;28;1038;-43
2022/01/06 04:56:51;;;;;;;;;;;22.00;51.40;;;;;;5098948;28;1012;-39
2022/01/06 04:59:18;;;;;;;;;;;22.10;51.40;;;;;;5099548;28;1038;-39
2022/01/06 05:01:45;;;;;;;;;;;22.00;51.40;;;;;;5099884;28;1897;-39
2022/01/06 05:04:11;;;;;;;;;;;22.00;51.40;;;;;;5099526;28;998;-39
2022/01/06 05:06:38;;;;;;;;;;;22.00;51.40;;;;;;5098873;28;1788;-40
2022/01/06 05:09:05;;;;;;;;;;;22.00;51.40;;;;;;5099055;28;953;-38
2022/01/06 05:11:33;;;;;;;;;;;22.10;51.40;;;;;;5099581;28;972;-34
2022/01/06 05:14:00;;;;;;;;;;;22.00;51.40;;;;;;5099316;28;944;-35
2022/01/06 05:16:26;;;;;;;;;;;22.10;51.40;;;;;;5098975;28;988;-41
2022/01/06 05:18:53;;;;;;;;;;;22.00;51.40;;;;;;5099644;28;956;-38
2022/01/06 05:21:20;;;;;;;;;;;22.00;51.30;;;;;;5099069;28;1968;-39
2022/01/06 05:23:49;;;;;;;;;;;22.00;51.30;;;;;;5099158;28;1797;-39
2022/01/06 05:26:15;;;;;;;;;;;22.00;51.30;;;;;;5098694;28;959;-39
2022/01/06 05:28:44;;;;;;;;;;;22.00;51.30;;;;;;5098974;28;952;-39
2022/01/06 05:31:11;;;;;;;;;;;22.00;51.40;;;;;;5098469;28;877;-39
2022/01/06 05:33:37;;;;;;;;;;;22.00;51.40;;;;;;5098967;28;1040;-40
2022/01/06 05:36:04;;;;;;;;;;;22.00;51.40;;;;;;5098839;28;932;-40
2022/01/06 05:38:31;;;;;;;;;;;22.00;51.30;;;;;;5098341;28;1094;-38
2022/01/06 05:40:58;;;;;;;;;;;22.00;51.40;;;;;;5098493;28;943;-39
2022/01/06 05:43:25;;;;;;;;;;;22.00;51.40;;;;;;5098588;28;1901;-38
2022/01/06 05:45:55;;;;;;;;;;;22.00;51.30;;;;;;5098019;28;988;-39
2022/01/06 05:48:22;;;;;;;;;;;22.00;51.20;;;;;;5097759;28;1300;-39
2022/01/06 05:50:49;;;;;;;;;;;22.00;51.30;;;;;;5097892;28;1003;-39
2022/01/06 05:53:16;;;;;;;;;;;22.00;51.30;;;;;;5097669;28;947;-39
2022/01/06 05:55:43;;;;;;;;;;;22.00;51.40;;;;;;5097434;28;980;-38
2022/01/06 05:58:09;;;;;;;;;;;22.00;51.40;;;;;;5097698;28;916;-39
2022/01/06 06:00:37;;;;;;;;;;;22.00;51.40;;;;;;5097681;28;973;-38
2022/01/06 06:03:05;;;;;;;;;;;22.00;51.40;;;;;;5097733;28;1985;-39
2022/01/06 06:05:32;;;;;;;;;;;22.00;51.30;;;;;;5097908;28;980;-40
2022/01/06 06:07:58;;;;;;;;;;;22.10;51.30;;;;;;5097512;28;1183;-39
2022/01/06 06:10:25;;;;;;;;;;;22.10;51.20;;;;;;5097350;28;1004;-38
2022/01/06 06:12:52;;;;;;;;;;;22.10;51.10;;;;;;5097236;28;932;-39
2022/01/06 06:15:20;;;;;;;;;;;22.10;51.10;;;;;;5096419;28;2144;-38
2022/01/06 06:17:46;;;;;;;;;;;22.20;50.90;;;;;;5097562;28;1143;-39
2022/01/06 06:20:14;;;;;;;;;;;22.20;50.80;;;;;;5097857;28;943;-38
2022/01/06 06:22:41;;;;;;;;;;;22.20;50.90;;;;;;5097306;28;1902;-38
2022/01/06 06:25:08;;;;;;;;;;;22.20;50.80;;;;;;5097998;28;905;-41
2022/01/06 06:27:35;;;;;;;;;;;22.20;50.90;;;;;;5097449;28;1184;-39
2022/01/06 06:30:02;;;;;;;;;;;22.20;51.00;;;;;;5097407;28;1019;-38
2022/01/06 06:32:33;;;;;;;;;;;22.20;51.00;;;;;;5097144;28;924;-39
2022/01/06 06:35:00;;;;;;;;;;;22.10;51.00;;;;;;5096808;28;972;-38
2022/01/06 06:37:28;;;;;;;;;;;22.20;51.10;;;;;;5097324;28;1051;-39
2022/01/06 06:39:54;;;;;;;;;;;22.20;51.10;;;;;;5097205;28;1008;-36
2022/01/06 06:42:21;;;;;;;;;;;22.10;51.10;;;;;;5097347;28;1901;-35
2022/01/06 06:44:48;;;;;;;;;;;22.10;51.20;;;;;;5097200;28;959;-34
2022/01/06 06:47:15;;;;;;;;;;;22.30;51.70;;;;;;5097056;28;980;-35
2022/01/06 06:49:42;;;;;;;;;;;22.20;51.20;;;;;;5097008;28;892;-34
2022/01/06 06:52:08;;;;;;;;;;;22.20;51.20;;;;;;5097367;28;1094;-34
2022/01/06 06:54:37;;;;;;;;;;;22.20;52.30;;;;;;5096913;28;977;-34
2022/01/06 06:57:05;;;;;;;;;;;22.30;51.20;;;;;;5097022;28;1034;-34
2022/01/06 06:59:31;;;;;;;;;;;22.40;52.10;;;;;;5096456;28;926;-34
2022/01/06 07:01:58;;;;;;;;;;;22.40;51.00;;;;;;5097226;28;1984;-34
2022/01/06 07:04:25;;;;;;;;;;;22.30;51.10;;;;;;5097143;28;986;-34
2022/01/06 07:06:52;;;;;;;;;;;22.30;51.00;;;;;;5096369;28;1004;-35
2022/01/06 07:09:18;;;;;;;;;;;22.40;51.20;;;;;;5097200;28;1009;-35
2022/01/06 07:11:47;;;;;;;;;;;22.40;51.10;;;;;;5096926;28;992;-35
2022/01/06 07:14:13;;;;;;;;;;;22.30;51.40;;;;;;5097305;28;985;-35
2022/01/06 07:16:40;;;;;;;;;;;22.20;51.50;;;;;;5096967;28;940;-37
2022/01/06 07:19:07;;;;;;;;;;;22.30;51.40;;;;;;5096923;28;983;-37
2022/01/06 07:21:34;;;;;;;;;;;22.20;51.50;;;;;;5099944;28;972;-37
2022/01/06 07:24:00;;;;;;;;;;;22.20;51.50;;;;;;5099856;28;1984;-37
2022/01/06 07:26:27;;;;;;;;;;;22.20;51.50;;;;;;5100676;28;968;-37
2022/01/06 07:28:55;;;;;;;;;;;22.20;51.50;;;;;;5100204;28;1042;-37
2022/01/06 07:31:22;;;;;;;;;;;22.20;51.50;;;;;;5100629;28;1034;-37
2022/01/06 07:33:49;;;;;;;;;;;22.10;51.40;;;;;;5100461;28;1796;-38
2022/01/06 07:36:16;;;;;;;;;;;22.10;51.40;;;;;;5101220;28;912;-37
2022/01/06 07:38:43;;;;;;;;;;;22.10;51.40;;;;;;5100206;28;1314;-37
2022/01/06 07:41:10;;;;;;;;;;;22.10;51.50;;;;;;5100128;28;940;-38
2022/01/06 07:43:37;;;;;;;;;;;22.10;51.50;;;;;;5099061;28;1905;-37
2022/01/06 07:46:06;;;;;;;;;;;22.00;51.50;;;;;;5099544;28;991;-37
2022/01/06 07:48:48;;;;;;;;;;;22.00;51.50;;;;;;5099230;28;969;-35
2022/01/06 07:51:15;;;;;;;;;;;22.00;51.50;;;;;;5099724;28;960;-35
2022/01/06 07:53:42;;;;;;;;;;;21.90;51.50;;;;;;5099728;28;949;-37
2022/01/06 07:56:09;;;;;;;;;;;21.90;51.50;;;;;;5100107;28;984;-37
2022/01/06 07:58:35;;;;;;;;;;;22.00;51.50;;;;;;5100138;28;1006;-35
2022/01/06 08:01:02;;;;;;;;;;;22.00;51.50;;;;;;5099737;28;1530;-37
2022/01/06 08:03:30;;;;;;;;;;;21.90;51.40;;;;;;5099647;28;1902;-37
2022/01/06 08:05:57;;;;;;;;;;;22.00;51.50;;;;;;5099678;28;1023;-37
2022/01/06 08:08:24;;;;;;;;;;;22.00;51.50;;;;;;5099837;28;1010;-37
2022/01/06 08:10:50;;;;;;;;;;;21.90;51.40;;;;;;5100048;28;952;-37
2022/01/06 08:13:17;;;;;;;;;;;21.90;51.40;;;;;;5099528;28;944;-36
2022/01/06 08:15:44;;;;;;;;;;;21.90;51.50;;;;;;5100001;28;939;-38
2022/01/06 08:18:11;;;;;;;;;;;21.90;51.50;;;;;;5099407;28;1013;-37
2022/01/06 08:20:39;;;;;;;;;;;21.90;51.50;;;;;;5099758;28;1058;-37
2022/01/06 08:23:06;;;;;;;;;;;21.90;51.80;;;;;;5099450;28;1913;-37
2022/01/06 08:25:32;;;;;;;;;;;21.90;51.50;;;;;;5099659;28;932;-40
2022/01/06 08:27:59;;;;;;;;;;;21.90;51.50;;;;;;5098979;28;916;-40
2022/01/06 08:30:26;;;;;;;;;;;21.90;51.50;;;;;;5097197;28;889;-37
2022/01/06 08:32:55;;;;;;;;;;;21.90;51.50;;;;;;5099110;28;1019;-37
2022/01/06 08:35:21;;;;;;;;;;;21.90;51.50;;;;;;5099333;28;1011;-37
2022/01/06 08:37:49;;;;;;;;;;;21.90;51.40;;;;;;5099303;28;1120;-37
2022/01/06 08:40:16;;;;;;;;;;;21.90;51.50;;;;;;5099539;28;947;-37
2022/01/06 08:42:43;;;;;;;;;;;21.90;51.50;;;;;;5098980;28;1976;-42
2022/01/06 08:45:10;;;;;;;;;;;21.90;51.40;;;;;;5098749;28;1046;-40
2022/01/06 08:47:37;;;;;;;;;;;21.90;51.50;;;;;;5099687;28;968;-41
2022/01/06 08:50:04;;;;;;;;;;;21.90;51.50;;;;;;5098147;28;1027;-42
2022/01/06 08:52:31;;;;;;;;;;;21.80;51.40;;;;;;5098781;28;982;-41
2022/01/06 08:54:59;;;;;;;;;;;21.80;51.40;;;;;;5098891;28;937;-42
2022/01/06 08:57:26;;;;;;;;;;;21.80;51.50;;;;;;5099392;28;975;-40
2022/01/06 08:59:53;;;;;;;;;;;21.80;51.50;;;;;;5098470;28;1037;-38
2022/01/06 09:02:20;;;;;;;;;;;21.80;51.50;;;;;;5098663;28;948;-37
2022/01/06 09:04:47;;;;;;;;;;;21.80;51.50;;;;;;5099223;28;1034;-37
2022/01/06 09:07:13;;;;;;;;;;;21.80;51.50;;;;;;5098536;28;999;-37
2022/01/06 09:09:40;;;;;;;;;;;21.80;51.50;;;;;;5098493;28;1122;-38
2022/01/06 09:12:16;;;;;;;;;;;21.80;51.50;;;;;;5098811;28;1004;-37
2022/01/06 09:14:43;;;;;;;;;;;21.80;51.40;;;;;;5098982;28;1036;-37
2022/01/06 09:17:10;;;;;;;;;;;21.80;51.40;;;;;;5098355;28;988;-37
2022/01/06 09:19:37;;;;;;;;;;;21.80;51.40;;;;;;5099019;28;932;-41
2022/01/06 09:22:04;;;;;;;;;;;21.80;51.40;;;;;;5097973;28;975;-39
2022/01/06 09:24:30;;;;;;;;;;;21.80;51.40;;;;;;5098648;28;1974;-39
2022/01/06 09:26:57;;;;;;;;;;;21.80;51.40;;;;;;5097658;28;1016;-38
2022/01/06 09:29:25;;;;;;;;;;;21.70;51.40;;;;;;5097245;28;881;-38
2022/01/06 09:31:52;;;;;;;;;;;21.80;51.50;;;;;;5098757;28;1002;-38
2022/01/06 09:34:19;;;;;;;;;;;21.70;51.40;;;;;;5097017;28;1300;-37
2022/01/06 09:36:46;;;;;;;;;;;21.70;51.40;;;;;;5089403;28;1174;-38
2022/01/06 09:39:13;;;;;;;;;;;21.70;51.40;;;;;;5095954;28;1008;-37
2022/01/06 09:41:40;;;;;;;;;;;21.80;51.50;;;;;;5096763;28;896;-37
2022/01/06 09:44:07;;;;;;;;;;;21.70;51.50;;;;;;5095876;28;1909;-38
2022/01/06 09:46:35;;;;;;;;;;;21.70;51.40;;;;;;5091760;28;928;-41
2022/01/06 09:49:02;;;;;;;;;;;21.70;51.40;;;;;;5096634;28;1109;-37
2022/01/06 09:51:29;;;;;;;;;;;21.70;51.40;;;;;;5097604;28;869;-37
2022/01/06 09:53:57;;;;;;;;;;;21.70;51.40;;;;;;5097242;28;972;-37
2022/01/06 09:56:26;;;;;;;;;;;21.70;51.50;;;;;;5091369;28;1023;-37
2022/01/06 09:58:53;;;;;;;;;;;21.70;51.40;;;;;;5096224;28;1023;-37
2022/01/06 10:01:20;;;;;;;;;;;21.70;51.40;;;;;;5096161;28;976;-37
2022/01/06 10:03:49;;;;;;;;;;;21.70;51.40;;;;;;5096380;28;1909;-37
2022/01/06 10:06:16;;;;;;;;;;;21.70;51.40;;;;;;5089795;28;1019;-38
2022/01/06 10:08:44;;;;;;;;;;;21.70;51.40;;;;;;5095226;28;947;-36
2022/01/06 10:11:12;;;;;;;;;;;21.70;51.40;;;;;;5096798;28;1050;-34
2022/01/06 10:13:39;;;;;;;;;;;21.70;51.40;;;;;;5095966;28;1018;-35
2022/01/06 10:16:16;;;;;;;;;;;21.70;51.40;;;;;;5089156;28;968;-38
2022/01/06 10:18:55;;;;;;;;;;;21.70;51.40;;;;;;5094401;28;1020;-41
2022/01/06 10:21:21;;;;;;;;;;;21.70;51.40;;;;;;5096605;28;983;-40
2022/01/06 10:23:58;;;;;;;;;;;21.70;51.50;;;;;;5097047;28;1917;-35
2022/01/06 10:26:24;;;;;;;;;;;21.70;51.50;;;;;;5089089;28;991;-35
2022/01/06 10:28:51;;;;;;;;;;;21.70;51.40;;;;;;5093500;28;941;-37
2022/01/06 10:31:22;;;;;;;;;;;21.70;51.40;;;;;;5095963;28;983;-37
2022/01/06 10:33:49;;;;;;;;;;;21.60;51.50;;;;;;5096063;28;937;-36
2022/01/06 10:36:17;;;;;;;;;;;21.70;51.40;;;;;;5092284;28;980;-37
2022/01/06 10:38:52;;;;;;;;;;;21.70;51.40;;;;;;5093402;28;1274;-41
2022/01/06 10:41:19;;;;;;;;;;;21.70;51.40;;;;;;5095735;28;951;-38
2022/01/06 10:43:49;;;;;;;;;;;21.70;51.40;;;;;;5096968;28;1901;-37
2022/01/06 10:46:15;;;;;;;;;;;21.70;51.50;;;;;;5089273;28;1001;-37
2022/01/06 10:48:44;;;;;;;;;;;21.70;51.40;;;;;;5092958;28;953;-37
2022/01/06 10:51:11;;;;;;;;;;;21.70;51.40;;;;;;5095364;28;996;-37
2022/01/06 10:53:48;;;;;;;;;;;21.70;52.50;;;;;;5096324;28;1004;-41
2022/01/06 10:56:17;;;;;;;;;;;21.70;51.40;;;;;;5094995;28;975;-41
2022/01/06 10:58:45;;;;;;;;;;;21.70;51.40;;;;;;5098843;28;1008;-42
2022/01/06 11:01:16;;;;;;;;;;;21.60;51.40;;;;;;5099764;28;944;-43
2022/01/06 11:03:42;;;;;;;;;;;21.60;51.40;;;;;;5099723;28;1906;-40
2022/01/06 11:06:10;;;;;;;;;;;21.60;51.40;;;;;;5093622;28;1000;-41
2022/01/06 11:08:40;;;;;;;;;;;21.60;51.50;;;;;;5096203;28;952;-42
2022/01/06 11:11:28;;;;;;;;;;;21.70;51.50;;;;;;5099319;28;928;-40
2022/01/06 11:13:55;;;;;;;;;;;21.60;51.50;;;;;;5098972;28;939;-41
2022/01/06 11:16:22;;;;;;;;;;;21.60;51.40;;;;;;5093962;28;944;-41
2022/01/06 11:18:50;;;;;;;;;;;21.60;51.50;;;;;;5096767;28;994;-41
2022/01/06 11:21:19;;;;;;;;;;;21.60;51.50;;;;;;5099189;28;975;-42
2022/01/06 11:23:46;;;;;;;;;;;21.60;51.50;;;;;;5098387;28;1970;-40
2022/01/06 11:26:17;;;;;;;;;;;21.60;51.50;;;;;;5094789;28;947;-42
2022/01/06 11:28:45;;;;;;;;;;;21.60;51.50;;;;;;5097460;28;1015;-40
2022/01/06 11:31:15;;;;;;;;;;;21.60;51.50;;;;;;5098011;28;1039;-40
2022/01/06 11:33:43;;;;;;;;;;;21.60;51.50;;;;;;5097719;28;988;-41
2022/01/06 11:36:18;;;;;;;;;;;21.60;51.60;;;;;;5096164;28;1003;-41
2022/01/06 11:38:46;;;;;;;;;;;21.60;51.50;;;;;;5096948;28;1169;-42
2022/01/06 11:41:15;;;;;;;;;;;21.60;51.50;;;;;;5097113;28;956;-40
2022/01/06 11:43:43;;;;;;;;;;;21.60;51.60;;;;;;5097773;28;1976;-41
2022/01/06 11:46:10;;;;;;;;;;;21.60;51.50;;;;;;5093308;28;1039;-42
2022/01/06 11:48:45;;;;;;;;;;;21.60;51.60;;;;;;5097625;28;1008;-41
2022/01/06 11:51:21;;;;;;;;;;;21.60;51.60;;;;;;5098048;28;1024;-41
2022/01/06 11:53:48;;;;;;;;;;;21.60;51.60;;;;;;5098542;28;975;-41
2022/01/06 11:56:17;;;;;;;;;;;21.60;51.50;;;;;;5092519;28;845;-41
2022/01/06 11:58:43;;;;;;;;;;;21.60;51.60;;;;;;5097892;28;1018;-41
2022/01/06 12:01:14;;;;;;;;;;;21.60;51.60;;;;;;5097986;28;943;-41
2022/01/06 12:03:42;;;;;;;;;;;21.60;51.60;;;;;;5097302;28;1902;-41
2022/01/06 12:06:09;;;;;;;;;;;21.60;51.60;;;;;;5093239;28;903;-41
2022/01/06 12:08:37;;;;;;;;;;;21.60;51.50;;;;;;5096291;28;925;-43
2022/01/06 12:11:04;;;;;;;;;;;21.60;51.40;;;;;;5098066;28;928;-37
2022/01/06 12:13:32;;;;;;;;;;;21.60;51.40;;;;;;5098734;28;932;-40
2022/01/06 12:16:01;;;;;;;;;;;21.60;51.40;;;;;;5094181;28;1018;-40
2022/01/06 12:18:29;;;;;;;;;;;21.60;51.50;;;;;;5096102;28;1011;-37
2022/01/06 12:20:57;;;;;;;;;;;21.60;51.50;;;;;;5097705;28;896;-37
2022/01/06 12:23:25;;;;;;;;;;;21.60;51.50;;;;;;5097748;28;1031;-36
2022/01/06 12:25:55;;;;;;;;;;;21.60;51.50;;;;;;5094547;28;936;-36
2022/01/06 12:28:22;;;;;;;;;;;21.60;51.40;;;;;;5096144;28;953;-37
2022/01/06 12:30:50;;;;;;;;;;;21.60;51.50;;;;;;5097827;28;988;-37
2022/01/06 12:33:20;;;;;;;;;;;21.60;51.50;;;;;;5098330;28;907;-37
2022/01/06 12:35:49;;;;;;;;;;;21.60;51.50;;;;;;5098008;28;984;-37
2022/01/06 12:38:18;;;;;;;;;;;21.60;51.50;;;;;;5097304;28;1249;-40
2022/01/06 12:40:45;;;;;;;;;;;21.60;51.60;;;;;;5097776;28;1023;-40
2022/01/06 12:43:16;;;;;;;;;;;21.60;51.50;;;;;;5096531;28;1022;-43
2022/01/06 12:45:43;;;;;;;;;;;21.60;51.50;;;;;;5096952;28;2004;-40
2022/01/06 12:48:11;;;;;;;;;;;21.60;51.40;;;;;;5097835;28;1606;-40
2022/01/06 12:50:45;;;;;;;;;;;21.60;51.50;;;;;;5098162;28;1008;-38
2022/01/06 12:53:23;;;;;;;;;;;21.50;51.40;;;;;;5097686;28;1024;-37
2022/01/06 12:55:50;;;;;;;;;;;21.50;51.40;;;;;;5096632;28;1066;-37
2022/01/06 12:58:23;;;;;;;;;;;21.60;51.40;;;;;;5096803;28;1016;-36
2022/01/06 13:00:52;;;;;;;;;;;21.60;51.50;;;;;;5096166;28;1013;-36
2022/01/06 13:03:27;;;;;;;;;;;21.50;51.40;;;;;;5096339;28;967;-36
2022/01/06 13:05:54;;;;;;;;;;;21.60;51.40;;;;;;5095848;28;1988;-35
2022/01/06 13:08:20;;;;;;;;;;;21.60;51.50;;;;;;5097928;28;1013;-36
2022/01/06 13:10:47;;;;;;;;;;;21.60;51.40;;;;;;5097761;28;975;-37
2022/01/06 13:13:14;;;;;;;;;;;21.60;51.40;;;;;;5096531;28;1001;-37
2022/01/06 13:15:41;;;;;;;;;;;21.50;51.40;;;;;;5096837;28;1023;-37
2022/01/06 13:18:08;;;;;;;;;;;21.50;51.40;;;;;;5095556;28;1031;-38
2022/01/06 13:20:39;;;;;;;;;;;21.60;51.40;;;;;;5097444;28;885;-37
2022/01/06 13:23:41;;;;;;;;;;;21.60;51.50;;;;;;5096878;28;1066;-38
2022/01/06 13:26:04;;;;;;;;;;;21.60;51.50;;;;;;5096710;28;1979;-38
2022/01/06 13:28:31;;;;;;;;;;;21.60;51.50;;;;;;5096559;28;980;-38
2022/01/06 13:30:58;;;;;;;;;;;21.60;51.40;;;;;;5095741;28;1013;-36
2022/01/06 13:33:28;;;;;;;;;;;21.60;51.50;;;;;;5095876;28;986;-37
2022/01/06 13:35:57;;;;;;;;;;;21.60;51.40;;;;;;5096708;28;939;-37
2022/01/06 13:38:24;;;;;;;;;;;21.60;51.50;;;;;;5096181;28;1020;-37
2022/01/06 13:40:53;;;;;;;;;;;21.60;51.50;;;;;;5095901;28;893;-37
2022/01/06 13:43:20;;;;;;;;;;;21.60;51.50;;;;;;5096672;28;1001;-37
2022/01/06 13:45:49;;;;;;;;;;;21.60;51.50;;;;;;5095537;28;1898;-38
2022/01/06 13:48:35;;;;;;;;;;;21.60;51.50;;;;;;5095721;28;1109;-38
2022/01/06 13:51:11;;;;;;;;;;;21.60;51.40;;;;;;5096327;28;1008;-38
2022/01/06 13:53:38;;;;;;;;;;;21.60;51.40;;;;;;5096675;28;1021;-37
2022/01/06 13:56:07;;;;;;;;;;;21.60;51.40;;;;;;5096093;28;938;-38
2022/01/06 13:58:34;;;;;;;;;;;21.60;51.40;;;;;;5095641;28;948;-36
2022/01/06 14:01:03;;;;;;;;;;;21.80;51.20;;;;;;5096213;28;988;-40
2022/01/06 14:03:31;;;;;;;;;;;21.70;51.10;;;;;;5095739;28;940;-39
2022/01/06 14:05:58;;;;;;;;;;;21.60;51.40;;;;;;5096954;28;1969;-41
2022/01/06 14:08:26;;;;;;;;;;;21.60;51.50;;;;;;5095538;28;1015;-40
2022/01/06 14:10:53;;;;;;;;;;;21.60;51.60;;;;;;5096582;28;1773;-43
2022/01/06 14:13:20;;;;;;;;;;;21.60;51.70;;;;;;5096046;28;988;-40
2022/01/06 14:15:47;;;;;;;;;;;21.70;51.50;;;;;;5096374;28;947;-41
2022/01/06 14:18:13;;;;;;;;;;;21.80;51.50;;;;;;5095628;28;1012;-40
2022/01/06 14:20:40;;;;;;;;;;;21.80;51.30;;;;;;5096108;28;949;-39
2022/01/06 14:23:07;;;;;;;;;;;21.90;51.30;;;;;;5095635;28;1159;-39
2022/01/06 14:25:35;;;;;;;;;;;21.90;51.10;;;;;;5094996;28;1906;-40
2022/01/06 14:28:02;;;;;;;;;;;21.90;51.00;;;;;;5095857;28;1011;-39
2022/01/06 14:30:29;;;;;;;;;;;21.90;51.00;;;;;;5094710;28;1046;-40
2022/01/06 14:32:58;;;;;;;;;;;22.00;51.10;;;;;;5094106;28;937;-40
2022/01/06 14:35:25;;;;;;;;;;;22.00;51.00;;;;;;5094874;28;1497;-42
2022/01/06 14:37:52;;;;;;;;;;;22.00;51.10;;;;;;5095181;28;1214;-40
2022/01/06 14:40:20;;;;;;;;;;;22.10;51.00;;;;;;5095381;28;964;-39
2022/01/06 14:42:48;;;;;;;;;;;22.10;51.00;;;;;;5094708;28;1027;-38